createdAt,value
2019-05-17T00:00:28.210Z,994.55
2019-05-17T00:01:30.629Z,994.57
2019-05-17T00:02:33.048Z,994.49
2019-05-17T00:03:39.197Z,994.54
2019-05-17T00:04:43.504Z,994.48
2019-05-17T00:05:48.177Z,994.48
2019-05-17T00:06:47.744Z,994.52
2019-05-17T00:07:47.581Z,994.49
2019-05-17T00:08:52.639Z,994.52
2019-05-17T00:09:52.978Z,994.45
2019-05-17T00:10:52.019Z,994.49
2019-05-17T00:11:50.655Z,994.46
2019-05-17T00:12:52.378Z,994.42
2019-05-17T00:13:53.753Z,994.39
2019-05-17T00:15:00.217Z,994.41
2019-05-17T00:15:58.998Z,994.41
2019-05-17T00:17:00.720Z,994.39
2019-05-17T00:17:59.270Z,994.36
2019-05-17T00:18:58.087Z,994.38
2019-05-17T00:20:00.431Z,994.36
2019-05-17T00:21:03.930Z,994.35
2019-05-17T00:22:02.712Z,994.3
2019-05-17T00:23:01.951Z,994.29
2019-05-17T00:24:01.686Z,994.26
2019-05-17T00:25:01.744Z,994.29
2019-05-17T00:26:00.013Z,994.3
2019-05-17T00:27:00.484Z,994.32
2019-05-17T00:28:07.046Z,994.26
2019-05-17T00:29:07.160Z,994.26
2019-05-17T00:30:06.652Z,994.23
2019-05-17T00:31:06.632Z,994.14
2019-05-17T00:32:08.118Z,994.2
2019-05-17T00:33:07.819Z,994.2
2019-05-17T00:34:07.321Z,994.17
2019-05-17T00:35:07.304Z,994.17
2019-05-17T00:36:06.990Z,994.13
2019-05-17T00:37:03.676Z,994.18
2019-05-17T00:38:06.515Z,994.21
2019-05-17T00:39:04.025Z,994.07
2019-05-17T00:40:03.193Z,994.14
2019-05-17T00:41:09.495Z,994.15
2019-05-17T00:42:08.352Z,994.18
2019-05-17T00:43:08.204Z,994.08
2019-05-17T00:44:10.942Z,994.13
2019-05-17T00:45:10.697Z,994.02
2019-05-17T00:46:14.280Z,994.04
2019-05-17T00:47:14.284Z,994.07
2019-05-17T00:48:12.410Z,994.04
2019-05-17T00:49:10.768Z,993.98
2019-05-17T00:50:08.989Z,994.04
2019-05-17T00:51:09.949Z,993.96
2019-05-17T00:52:07.696Z,993.96
2019-05-17T00:53:12.595Z,993.93
2019-05-17T00:54:11.861Z,993.96
2019-05-17T00:55:12.532Z,993.99
2019-05-17T00:56:11.655Z,993.9
2019-05-17T00:57:12.939Z,993.96
2019-05-17T00:58:17.193Z,993.98
2019-05-17T00:59:17.282Z,993.95
2019-05-17T01:00:20.293Z,993.93
2019-05-17T01:01:18.501Z,993.96
2019-05-17T01:02:16.856Z,994.01
2019-05-17T01:03:16.387Z,993.95
2019-05-17T01:04:22.137Z,993.98
2019-05-17T01:05:20.613Z,993.96
2019-05-17T01:06:21.667Z,994.02
2019-05-17T01:07:33.309Z,993.89
2019-05-17T01:08:31.653Z,993.91
2019-05-17T01:09:32.041Z,993.92
2019-05-17T01:10:37.015Z,993.93
2019-05-17T01:11:40.059Z,993.88
2019-05-17T01:12:40.851Z,993.89
2019-05-17T01:13:41.383Z,993.92
2019-05-17T01:14:46.760Z,993.82
2019-05-17T01:15:49.770Z,993.82
2019-05-17T01:16:48.934Z,993.74
2019-05-17T01:17:47.522Z,993.79
2019-05-17T01:18:47.121Z,993.83
2019-05-17T01:19:49.768Z,993.79
2019-05-17T01:20:48.053Z,993.79
2019-05-17T01:21:50.201Z,993.79
2019-05-17T01:22:51.170Z,993.74
2019-05-17T01:23:51.178Z,993.76
2019-05-17T01:24:49.983Z,993.71
2019-05-17T01:25:48.217Z,993.7
2019-05-17T01:26:46.974Z,993.73
2019-05-17T01:27:47.470Z,993.79
2019-05-17T01:28:46.780Z,993.65
2019-05-17T01:29:46.627Z,993.7
2019-05-17T01:30:46.357Z,993.68
2019-05-17T01:31:46.586Z,993.77
2019-05-17T01:32:46.474Z,993.67
2019-05-17T01:33:47.193Z,993.68
2019-05-17T01:34:52.959Z,993.7
2019-05-17T01:35:51.552Z,993.67
2019-05-17T01:36:50.814Z,993.65
2019-05-17T01:37:50.068Z,993.68
2019-05-17T01:38:54.220Z,993.71
2019-05-17T01:39:52.591Z,993.64
2019-05-17T01:40:56.536Z,993.68
2019-05-17T01:41:57.333Z,993.67
2019-05-17T01:42:58.184Z,993.7
2019-05-17T01:43:58.566Z,993.61
2019-05-17T01:45:01.480Z,993.6
2019-05-17T01:46:10.357Z,993.6
2019-05-17T01:47:16.592Z,993.6
2019-05-17T01:48:16.300Z,993.57
2019-05-17T01:49:13.210Z,993.6
2019-05-17T01:49:28.068Z,993.49
2019-05-17T01:50:28.462Z,993.61
2019-05-17T01:51:41.644Z,993.49
2019-05-17T01:52:39.683Z,993.54
2019-05-17T01:53:40.615Z,993.54
2019-05-17T01:54:39.884Z,993.48
2019-05-17T01:55:39.099Z,993.54
2019-05-17T01:56:37.440Z,993.49
2019-05-17T01:57:37.019Z,993.54
2019-05-17T01:58:36.496Z,993.48
2019-05-17T01:59:34.407Z,993.46
2019-05-17T02:00:33.516Z,993.43
2019-05-17T02:01:31.952Z,993.4
2019-05-17T02:02:31.015Z,993.45
2019-05-17T02:03:33.943Z,993.43
2019-05-17T02:04:33.816Z,993.46
2019-05-17T02:05:31.907Z,993.42
2019-05-17T02:06:31.662Z,993.32
2019-05-17T02:07:29.789Z,993.35
2019-05-17T02:08:28.586Z,993.38
2019-05-17T02:09:37.260Z,993.36
2019-05-17T02:09:38.569Z,993.36
2019-05-17T02:09:41.704Z,993.36
2019-05-17T02:10:30.595Z,993.42
2019-05-17T02:11:30.822Z,993.33
2019-05-17T02:12:30.167Z,993.45
2019-05-17T02:13:31.870Z,993.42
2019-05-17T02:14:32.545Z,993.3
2019-05-17T02:15:34.278Z,993.36
2019-05-17T02:16:42.472Z,993.36
2019-05-17T02:17:41.967Z,993.43
2019-05-17T02:18:41.025Z,993.39
2019-05-17T02:19:42.800Z,993.39
2019-05-17T02:20:43.730Z,993.33
2019-05-17T02:21:48.168Z,993.35
2019-05-17T02:22:56.508Z,993.36
2019-05-17T02:23:57.127Z,993.29
2019-05-17T02:24:53.726Z,993.3
2019-05-17T02:25:52.255Z,993.29
2019-05-17T02:26:51.579Z,993.3
2019-05-17T02:27:53.342Z,993.32
2019-05-17T02:28:55.736Z,993.3
2019-05-17T02:29:54.806Z,993.27
2019-05-17T02:30:54.059Z,993.25
2019-05-17T02:31:52.831Z,993.24
2019-05-17T02:32:54.053Z,993.21
2019-05-17T02:33:54.331Z,993.32
2019-05-17T02:34:56.910Z,993.22
2019-05-17T02:35:56.274Z,993.22
2019-05-17T02:36:55.925Z,993.21
2019-05-17T02:37:54.525Z,993.29
2019-05-17T02:38:53.275Z,993.29
2019-05-17T02:40:03.050Z,993.21
2019-05-17T02:40:04.792Z,993.21
2019-05-17T02:40:08.198Z,993.21
2019-05-17T02:40:57.191Z,993.26
2019-05-17T02:41:56.983Z,993.24
2019-05-17T02:42:58.367Z,993.16
2019-05-17T02:43:57.535Z,993.22
2019-05-17T02:44:55.610Z,993.21
2019-05-17T02:45:57.080Z,993.26
2019-05-17T02:46:57.037Z,993.19
2019-05-17T02:48:03.847Z,993.21
2019-05-17T02:49:03.194Z,993.19
2019-05-17T02:50:08.896Z,993.21
2019-05-17T02:51:07.851Z,993.25
2019-05-17T02:52:12.449Z,993.22
2019-05-17T02:53:13.230Z,993.18
2019-05-17T02:54:13.290Z,993.25
2019-05-17T02:55:12.954Z,993.16
2019-05-17T02:56:13.377Z,993.25
2019-05-17T02:57:09.047Z,993.15
2019-05-17T02:58:12.600Z,993.15
2019-05-17T02:59:13.482Z,993.16
2019-05-17T03:00:13.468Z,993.15
2019-05-17T03:01:12.708Z,993.06
2019-05-17T03:02:12.689Z,993.16
2019-05-17T03:03:13.612Z,993.15
2019-05-17T03:04:14.559Z,993.13
2019-05-17T03:05:14.227Z,993.18
2019-05-17T03:06:14.635Z,993.16
2019-05-17T03:07:13.945Z,993.21
2019-05-17T03:08:15.742Z,993.15
2019-05-17T03:09:14.841Z,993.12
2019-05-17T03:10:22.702Z,993.11
2019-05-17T03:10:28.100Z,993.11
2019-05-17T03:10:28.644Z,993.11
2019-05-17T03:11:14.511Z,993.08
2019-05-17T03:12:13.637Z,993.15
2019-05-17T03:13:17.134Z,993.13
2019-05-17T03:13:18.220Z,993.13
2019-05-17T03:14:12.761Z,993.13
2019-05-17T03:15:13.006Z,993
2019-05-17T03:16:14.381Z,993.1
2019-05-17T03:17:09.714Z,993.13
2019-05-17T03:18:13.698Z,993.06
2019-05-17T03:19:13.369Z,993.12
2019-05-17T03:20:12.811Z,993.12
2019-05-17T03:21:13.507Z,993.13
2019-05-17T03:22:13.155Z,993.06
2019-05-17T03:23:12.630Z,993.16
2019-05-17T03:24:09.719Z,993.09
2019-05-17T03:25:08.598Z,993.15
2019-05-17T03:26:07.593Z,993.12
2019-05-17T03:27:07.173Z,992.97
2019-05-17T03:28:07.483Z,992.99
2019-05-17T03:29:07.132Z,993.08
2019-05-17T03:30:05.357Z,993.06
2019-05-17T03:31:08.706Z,992.96
2019-05-17T03:32:16.696Z,993.08
2019-05-17T03:32:17.595Z,993.08
2019-05-17T03:33:15.957Z,993.05
2019-05-17T03:33:17.014Z,993.05
2019-05-17T03:34:17.064Z,992.94
2019-05-17T03:34:17.969Z,992.94
2019-05-17T03:35:16.941Z,992.93
2019-05-17T03:35:18.363Z,992.93
2019-05-17T03:36:17.062Z,992.91
2019-05-17T03:36:18.117Z,992.91
2019-05-17T03:37:16.198Z,992.91
2019-05-17T03:38:14.062Z,992.94
2019-05-17T03:39:14.132Z,992.91
2019-05-17T03:40:27.518Z,992.93
2019-05-17T03:40:46.368Z,992.93
2019-05-17T03:40:58.471Z,992.93
2019-05-17T03:41:23.297Z,992.94
2019-05-17T03:41:24.894Z,992.94
2019-05-17T03:41:28.919Z,992.94
2019-05-17T03:42:15.045Z,992.94
2019-05-17T03:43:15.121Z,992.89
2019-05-17T03:44:15.284Z,992.91
2019-05-17T03:45:14.995Z,992.98
2019-05-17T03:46:15.175Z,992.83
2019-05-17T03:47:17.597Z,992.93
2019-05-17T03:48:15.947Z,992.91
2019-05-17T03:49:14.917Z,992.94
2019-05-17T03:50:14.269Z,992.85
2019-05-17T03:51:14.436Z,992.89
2019-05-17T03:52:15.551Z,992.93
2019-05-17T03:53:14.494Z,992.85
2019-05-17T03:54:15.136Z,992.88
2019-05-17T03:55:14.425Z,992.91
2019-05-17T03:56:13.472Z,992.89
2019-05-17T03:57:15.672Z,992.82
2019-05-17T03:58:15.892Z,992.78
2019-05-17T03:59:17.281Z,992.84
2019-05-17T04:00:16.400Z,992.93
2019-05-17T04:01:14.946Z,992.82
2019-05-17T04:02:16.397Z,992.85
2019-05-17T04:03:22.697Z,992.85
2019-05-17T04:04:18.518Z,992.86
2019-05-17T04:05:22.430Z,992.81
2019-05-17T04:06:18.407Z,992.84
2019-05-17T04:07:16.851Z,992.82
2019-05-17T04:08:18.911Z,992.78
2019-05-17T04:09:18.585Z,992.78
2019-05-17T04:10:18.200Z,992.81
2019-05-17T04:11:27.913Z,992.75
2019-05-17T04:11:31.548Z,992.75
2019-05-17T04:11:32.908Z,992.75
2019-05-17T04:12:22.881Z,992.79
2019-05-17T04:13:18.736Z,992.73
2019-05-17T04:14:17.112Z,992.8
2019-05-17T04:15:15.234Z,992.76
2019-05-17T04:16:15.349Z,992.78
2019-05-17T04:17:13.883Z,992.79
2019-05-17T04:18:13.385Z,992.76
2019-05-17T04:19:13.915Z,992.76
2019-05-17T04:20:13.674Z,992.73
2019-05-17T04:21:14.222Z,992.76
2019-05-17T04:22:17.462Z,992.81
2019-05-17T04:23:17.376Z,992.75
2019-05-17T04:24:18.842Z,992.78
2019-05-17T04:25:19.328Z,992.69
2019-05-17T04:26:26.253Z,992.75
2019-05-17T04:27:25.339Z,992.82
2019-05-17T04:28:24.855Z,992.72
2019-05-17T04:29:23.363Z,992.78
2019-05-17T04:30:34.210Z,992.7
2019-05-17T04:31:35.214Z,992.73
2019-05-17T04:32:34.940Z,992.67
2019-05-17T04:33:33.993Z,992.66
2019-05-17T04:34:33.581Z,992.7
2019-05-17T04:35:32.744Z,992.72
2019-05-17T04:36:33.878Z,992.7
2019-05-17T04:37:38.108Z,992.62
2019-05-17T04:38:37.349Z,992.72
2019-05-17T04:39:42.959Z,992.64
2019-05-17T04:40:38.938Z,992.67
2019-05-17T04:41:45.394Z,992.64
2019-05-17T04:41:49.716Z,992.64
2019-05-17T04:41:51.031Z,992.64
2019-05-17T04:42:37.954Z,992.69
2019-05-17T04:43:42.652Z,992.66
2019-05-17T04:44:43.126Z,992.61
2019-05-17T04:45:42.613Z,992.64
2019-05-17T04:46:44.280Z,992.7
2019-05-17T04:47:53.098Z,992.63
2019-05-17T04:48:53.606Z,992.67
2019-05-17T04:49:53.652Z,992.69
2019-05-17T04:50:53.713Z,992.69
2019-05-17T04:51:52.527Z,992.66
2019-05-17T04:52:49.368Z,992.66
2019-05-17T04:53:52.752Z,992.69
2019-05-17T04:54:54.770Z,992.64
2019-05-17T04:55:55.611Z,992.56
2019-05-17T04:56:56.296Z,992.66
2019-05-17T04:57:54.610Z,992.66
2019-05-17T04:58:54.295Z,992.59
2019-05-17T04:59:52.342Z,992.63
2019-05-17T05:00:53.578Z,992.63
2019-05-17T05:01:53.536Z,992.59
2019-05-17T05:02:52.555Z,992.63
2019-05-17T05:03:52.540Z,992.61
2019-05-17T05:04:54.109Z,992.57
2019-05-17T05:05:53.981Z,992.61
2019-05-17T05:06:52.833Z,992.6
2019-05-17T05:07:53.471Z,992.54
2019-05-17T05:08:55.611Z,992.63
2019-05-17T05:09:53.976Z,992.62
2019-05-17T05:10:53.533Z,992.64
2019-05-17T05:12:01.024Z,992.63
2019-05-17T05:12:02.737Z,992.63
2019-05-17T05:12:06.257Z,992.63
2019-05-17T05:12:56.918Z,992.59
2019-05-17T05:13:56.873Z,992.66
2019-05-17T05:14:58.184Z,992.6
2019-05-17T05:15:57.542Z,992.57
2019-05-17T05:16:56.695Z,992.59
2019-05-17T05:17:54.851Z,992.63
2019-05-17T05:18:52.821Z,992.54
2019-05-17T05:19:53.103Z,992.69
2019-05-17T05:20:53.043Z,992.6
2019-05-17T05:21:52.744Z,992.59
2019-05-17T05:22:53.740Z,992.59
2019-05-17T05:23:55.301Z,992.6
2019-05-17T05:24:54.376Z,992.57
2019-05-17T05:25:54.707Z,992.6
2019-05-17T05:26:53.137Z,992.66
2019-05-17T05:27:54.802Z,992.68
2019-05-17T05:28:54.466Z,992.6
2019-05-17T05:29:53.723Z,992.62
2019-05-17T05:30:52.727Z,992.69
2019-05-17T05:31:51.801Z,992.69
2019-05-17T05:32:52.845Z,992.62
2019-05-17T05:33:52.314Z,992.6
2019-05-17T05:34:52.896Z,992.62
2019-05-17T05:36:02.044Z,992.63
2019-05-17T05:36:58.425Z,992.6
2019-05-17T05:38:03.785Z,992.63
2019-05-17T05:39:02.429Z,992.66
2019-05-17T05:40:02.341Z,992.68
2019-05-17T05:41:01.938Z,992.66
2019-05-17T05:42:07.964Z,992.71
2019-05-17T05:42:10.686Z,992.71
2019-05-17T05:42:13.953Z,992.71
2019-05-17T05:43:02.345Z,992.72
2019-05-17T05:44:01.843Z,992.71
2019-05-17T05:45:03.663Z,992.66
2019-05-17T05:46:06.972Z,992.72
2019-05-17T05:47:17.545Z,992.74
2019-05-17T05:48:17.877Z,992.74
2019-05-17T05:49:21.579Z,992.65
2019-05-17T05:50:18.803Z,992.74
2019-05-17T05:51:21.645Z,992.71
2019-05-17T05:52:19.011Z,992.72
2019-05-17T05:53:17.019Z,992.66
2019-05-17T05:54:17.082Z,992.75
2019-05-17T05:55:15.601Z,992.68
2019-05-17T05:56:14.419Z,992.72
2019-05-17T05:57:21.890Z,992.64
2019-05-17T05:58:19.521Z,992.68
2019-05-17T05:59:23.628Z,992.62
2019-05-17T06:00:28.506Z,992.73
2019-05-17T06:01:29.526Z,992.71
2019-05-17T06:02:28.659Z,992.7
2019-05-17T06:03:28.309Z,992.67
2019-05-17T06:04:28.804Z,992.61
2019-05-17T06:05:26.567Z,992.67
2019-05-17T06:06:27.966Z,992.7
2019-05-17T06:07:29.168Z,992.61
2019-05-17T06:08:36.056Z,992.71
2019-05-17T06:09:35.962Z,992.65
2019-05-17T06:10:35.739Z,992.58
2019-05-17T06:11:33.608Z,992.64
2019-05-17T06:12:32.262Z,992.52
2019-05-17T06:13:32.588Z,992.55
2019-05-17T06:14:32.203Z,992.61
2019-05-17T06:15:32.063Z,992.54
2019-05-17T06:16:33.785Z,992.52
2019-05-17T06:17:33.502Z,992.6
2019-05-17T06:18:32.296Z,992.54
2019-05-17T06:19:36.088Z,992.6
2019-05-17T06:20:38.198Z,992.63
2019-05-17T06:21:37.875Z,992.6
2019-05-17T06:22:51.721Z,992.63
2019-05-17T06:23:47.941Z,992.69
2019-05-17T06:24:51.875Z,992.61
2019-05-17T06:25:58.562Z,992.52
2019-05-17T06:26:56.612Z,992.61
2019-05-17T06:27:56.554Z,992.54
2019-05-17T06:28:55.370Z,992.54
2019-05-17T06:29:54.098Z,992.54
2019-05-17T06:30:55.900Z,992.57
2019-05-17T06:31:55.972Z,992.61
2019-05-17T06:32:59.060Z,992.64
2019-05-17T06:33:58.372Z,992.53
2019-05-17T06:35:01.851Z,992.54
2019-05-17T06:36:02.341Z,992.57
2019-05-17T06:37:02.274Z,992.48
2019-05-17T06:38:03.065Z,992.48
2019-05-17T06:39:02.242Z,992.5
2019-05-17T06:40:02.563Z,992.47
2019-05-17T06:41:04.903Z,992.45
2019-05-17T06:42:06.060Z,992.47
2019-05-17T06:43:04.521Z,992.53
2019-05-17T06:44:05.299Z,992.47
2019-05-17T06:45:03.624Z,992.45
2019-05-17T06:46:03.956Z,992.48
2019-05-17T06:47:11.910Z,992.47
2019-05-17T06:48:15.513Z,992.48
2019-05-17T06:49:17.210Z,992.51
2019-05-17T06:50:28.591Z,992.53
2019-05-17T06:51:27.198Z,992.6
2019-05-17T06:52:32.512Z,992.47
2019-05-17T06:53:29.451Z,992.5
2019-05-17T06:54:30.470Z,992.48
2019-05-17T06:55:33.373Z,992.42
2019-05-17T06:56:32.377Z,992.42
2019-05-17T06:57:32.562Z,992.41
2019-05-17T06:58:38.183Z,992.47
2019-05-17T06:59:39.938Z,992.45
2019-05-17T07:00:40.261Z,992.38
2019-05-17T07:01:42.432Z,992.42
2019-05-17T07:02:41.749Z,992.41
2019-05-17T07:03:49.580Z,992.41
2019-05-17T07:04:50.815Z,992.36
2019-05-17T07:05:50.213Z,992.36
2019-05-17T07:06:49.628Z,992.44
2019-05-17T07:07:49.855Z,992.42
2019-05-17T07:08:49.794Z,992.42
2019-05-17T07:09:49.707Z,992.36
2019-05-17T07:10:53.894Z,992.26
2019-05-17T07:12:02.079Z,992.32
2019-05-17T07:13:03.385Z,992.39
2019-05-17T07:14:02.664Z,992.27
2019-05-17T07:15:06.172Z,992.27
2019-05-17T07:16:07.664Z,992.27
2019-05-17T07:17:09.821Z,992.3
2019-05-17T07:18:15.902Z,992.26
2019-05-17T07:19:19.648Z,992.23
2019-05-17T07:20:21.544Z,992.23
2019-05-17T07:21:29.803Z,992.35
2019-05-17T07:22:29.477Z,992.22
2019-05-17T07:23:27.532Z,992.26
2019-05-17T07:24:31.622Z,992.22
2019-05-17T07:25:33.767Z,992.23
2019-05-17T07:26:32.221Z,992.23
2019-05-17T07:27:41.719Z,992.23
2019-05-17T07:27:45.927Z,992.23
2019-05-17T07:28:36.530Z,992.29
2019-05-17T07:29:34.958Z,992.23
2019-05-17T07:30:33.921Z,992.27
2019-05-17T07:31:33.336Z,992.29
2019-05-17T07:32:40.635Z,992.2
2019-05-17T07:33:40.016Z,992.16
2019-05-17T07:34:45.405Z,992.18
2019-05-17T07:35:51.909Z,992.24
2019-05-17T07:36:50.571Z,992.17
2019-05-17T07:37:52.643Z,992.2
2019-05-17T07:38:52.141Z,992.16
2019-05-17T07:40:00.477Z,992.13
2019-05-17T07:40:01.319Z,992.13
2019-05-17T07:40:05.050Z,992.13
2019-05-17T07:40:59.424Z,992.18
2019-05-17T07:41:56.813Z,992.12
2019-05-17T07:43:10.366Z,992.21
2019-05-17T07:43:10.936Z,992.21
2019-05-17T07:43:14.656Z,992.21
2019-05-17T07:44:04.972Z,992.11
2019-05-17T07:45:04.128Z,992.12
2019-05-17T07:46:09.592Z,992.18
2019-05-17T07:47:06.162Z,992.17
2019-05-17T07:48:06.132Z,992.11
2019-05-17T07:49:04.098Z,992.14
2019-05-17T07:50:01.993Z,992.09
2019-05-17T07:51:02.224Z,992.17
2019-05-17T07:52:03.663Z,992.12
2019-05-17T07:53:02.124Z,992.05
2019-05-17T07:54:01.361Z,992.05
2019-05-17T07:55:02.271Z,992.1
2019-05-17T07:56:00.935Z,992.04
2019-05-17T07:57:06.275Z,991.99
2019-05-17T07:58:04.659Z,992.05
2019-05-17T07:59:05.794Z,992.04
2019-05-17T08:00:03.614Z,991.99
2019-05-17T08:01:05.188Z,991.99
2019-05-17T08:02:12.000Z,992.02
2019-05-17T08:03:12.684Z,992.02
2019-05-17T08:04:10.372Z,991.98
2019-05-17T08:05:13.731Z,991.93
2019-05-17T08:06:12.289Z,991.99
2019-05-17T08:07:11.121Z,991.89
2019-05-17T08:08:20.254Z,991.99
2019-05-17T08:09:20.337Z,991.95
2019-05-17T08:10:22.746Z,991.86
2019-05-17T08:11:24.275Z,991.9
2019-05-17T08:12:24.525Z,991.8
2019-05-17T08:13:30.279Z,991.87
2019-05-17T08:13:33.176Z,991.87
2019-05-17T08:14:29.550Z,991.89
2019-05-17T08:14:31.107Z,991.89
2019-05-17T08:15:25.409Z,991.84
2019-05-17T08:16:24.569Z,991.83
2019-05-17T08:17:30.406Z,991.83
2019-05-17T08:18:29.657Z,991.78
2019-05-17T08:19:29.923Z,991.84
2019-05-17T08:20:29.983Z,991.87
2019-05-17T08:21:30.536Z,991.78
2019-05-17T08:22:29.256Z,991.75
2019-05-17T08:23:30.211Z,991.77
2019-05-17T08:24:33.226Z,991.81
2019-05-17T08:25:49.662Z,991.84
2019-05-17T08:25:52.697Z,991.84
2019-05-17T08:25:52.796Z,991.84
2019-05-17T08:26:37.087Z,991.84
2019-05-17T08:27:30.589Z,991.74
2019-05-17T08:28:31.234Z,991.77
2019-05-17T08:29:29.783Z,991.75
2019-05-17T08:30:30.288Z,991.67
2019-05-17T08:31:32.055Z,991.69
2019-05-17T08:32:32.178Z,991.78
2019-05-17T08:33:32.648Z,991.78
2019-05-17T08:34:30.987Z,991.72
2019-05-17T08:35:30.410Z,991.81
2019-05-17T08:36:29.980Z,991.74
2019-05-17T08:37:30.149Z,991.86
2019-05-17T08:38:32.290Z,991.8
2019-05-17T08:39:30.716Z,991.75
2019-05-17T08:40:40.354Z,991.75
2019-05-17T08:41:40.414Z,991.75
2019-05-17T08:42:40.598Z,991.83
2019-05-17T08:43:46.177Z,991.77
2019-05-17T08:43:46.833Z,991.77
2019-05-17T08:44:40.531Z,991.74
2019-05-17T08:45:41.075Z,991.64
2019-05-17T08:46:41.469Z,991.65
2019-05-17T08:47:39.837Z,991.75
2019-05-17T08:48:40.213Z,991.7
2019-05-17T08:49:40.471Z,991.59
2019-05-17T08:50:50.845Z,991.68
2019-05-17T08:51:50.016Z,991.62
2019-05-17T08:52:49.466Z,991.59
2019-05-17T08:53:49.292Z,991.59
2019-05-17T08:54:52.421Z,991.57
2019-05-17T08:55:52.274Z,991.59
2019-05-17T08:56:51.087Z,991.58
2019-05-17T08:57:51.249Z,991.62
2019-05-17T08:58:55.658Z,991.57
2019-05-17T09:00:01.118Z,991.6
2019-05-17T09:01:00.444Z,991.52
2019-05-17T09:02:00.100Z,991.54
2019-05-17T09:03:00.106Z,991.52
2019-05-17T09:04:04.196Z,991.54
2019-05-17T09:05:03.808Z,991.57
2019-05-17T09:06:02.818Z,991.52
2019-05-17T09:07:09.478Z,991.54
2019-05-17T09:08:10.503Z,991.61
2019-05-17T09:09:09.864Z,991.54
2019-05-17T09:10:09.829Z,991.48
2019-05-17T09:11:12.143Z,991.55
2019-05-17T09:12:11.149Z,991.52
2019-05-17T09:13:14.659Z,991.49
2019-05-17T09:14:12.977Z,991.48
2019-05-17T09:15:10.881Z,991.49
2019-05-17T09:16:10.733Z,991.49
2019-05-17T09:17:12.284Z,991.47
2019-05-17T09:18:14.744Z,991.49
2019-05-17T09:19:23.276Z,991.48
2019-05-17T09:20:24.667Z,991.47
2019-05-17T09:21:23.539Z,991.48
2019-05-17T09:22:23.997Z,991.4
2019-05-17T09:23:30.197Z,991.47
2019-05-17T09:24:27.011Z,991.39
2019-05-17T09:25:30.269Z,991.4
2019-05-17T09:26:29.282Z,991.46
2019-05-17T09:27:29.994Z,991.43
2019-05-17T09:28:26.963Z,991.27
2019-05-17T09:29:30.512Z,991.47
2019-05-17T09:30:31.362Z,991.4
2019-05-17T09:31:34.722Z,991.51
2019-05-17T09:32:33.732Z,991.46
2019-05-17T09:33:40.574Z,991.43
2019-05-17T09:34:40.424Z,991.44
2019-05-17T09:35:37.113Z,991.44
2019-05-17T09:36:35.285Z,991.44
2019-05-17T09:37:34.979Z,991.43
2019-05-17T09:38:32.942Z,991.49
2019-05-17T09:39:33.759Z,991.44
2019-05-17T09:40:35.808Z,991.48
2019-05-17T09:41:34.495Z,991.41
2019-05-17T09:42:32.916Z,991.43
2019-05-17T09:43:40.221Z,991.37
2019-05-17T09:44:42.870Z,991.31
2019-05-17T09:45:43.735Z,991.4
2019-05-17T09:46:46.274Z,991.4
2019-05-17T09:47:50.359Z,991.34
2019-05-17T09:48:47.017Z,991.37
2019-05-17T09:49:46.932Z,991.34
2019-05-17T09:50:45.745Z,991.33
2019-05-17T09:51:43.857Z,991.37
2019-05-17T09:52:42.077Z,991.31
2019-05-17T09:53:44.702Z,991.33
2019-05-17T09:54:45.462Z,991.27
2019-05-17T09:55:45.997Z,991.33
2019-05-17T09:56:46.117Z,991.27
2019-05-17T09:57:49.891Z,991.31
2019-05-17T09:58:52.388Z,991.3
2019-05-17T09:59:52.683Z,991.27
2019-05-17T10:00:57.190Z,991.31
2019-05-17T10:01:54.988Z,991.28
2019-05-17T10:02:55.278Z,991.28
2019-05-17T10:03:54.318Z,991.19
2019-05-17T10:04:53.934Z,991.27
2019-05-17T10:05:51.921Z,991.22
2019-05-17T10:06:51.928Z,991.22
2019-05-17T10:07:55.480Z,991.19
2019-05-17T10:08:53.692Z,991.24
2019-05-17T10:09:51.733Z,991.18
2019-05-17T10:11:04.247Z,991.18
2019-05-17T10:11:08.151Z,991.18
2019-05-17T10:11:08.642Z,991.18
2019-05-17T10:11:49.496Z,991.16
2019-05-17T10:12:50.722Z,991.15
2019-05-17T10:13:49.920Z,991.23
2019-05-17T10:14:49.810Z,991.22
2019-05-17T10:15:46.723Z,991.15
2019-05-17T10:16:46.090Z,991.23
2019-05-17T10:17:48.809Z,991.16
2019-05-17T10:18:47.227Z,991.15
2019-05-17T10:19:46.621Z,991.12
2019-05-17T10:20:45.623Z,991.18
2019-05-17T10:21:49.280Z,991.18
2019-05-17T10:22:47.182Z,991.13
2019-05-17T10:23:46.672Z,991.06
2019-05-17T10:24:45.300Z,991.1
2019-05-17T10:25:47.936Z,991.16
2019-05-17T10:26:49.894Z,991.15
2019-05-17T10:27:49.672Z,991.1
2019-05-17T10:28:46.459Z,991.04
2019-05-17T10:29:46.633Z,991.09
2019-05-17T10:30:52.303Z,991.12
2019-05-17T10:31:50.769Z,991.15
2019-05-17T10:32:52.364Z,991.07
2019-05-17T10:33:49.839Z,991.09
2019-05-17T10:34:49.494Z,991.03
2019-05-17T10:35:49.903Z,991.1
2019-05-17T10:36:47.766Z,991.09
2019-05-17T10:37:50.363Z,991.13
2019-05-17T10:38:50.521Z,991.06
2019-05-17T10:39:50.797Z,991.16
2019-05-17T10:40:50.093Z,991.07
2019-05-17T10:41:49.937Z,991.18
2019-05-17T10:42:50.359Z,991.12
2019-05-17T10:43:50.936Z,991.13
2019-05-17T10:44:51.411Z,991.12
2019-05-17T10:45:52.045Z,991.03
2019-05-17T10:46:52.527Z,991
2019-05-17T10:47:53.699Z,991.04
2019-05-17T10:48:54.490Z,991.04
2019-05-17T10:49:55.013Z,991.01
2019-05-17T10:50:53.815Z,991.13
2019-05-17T10:51:53.792Z,991.09
2019-05-17T10:52:51.806Z,991
2019-05-17T10:53:51.250Z,991
2019-05-17T10:54:50.437Z,990.97
2019-05-17T10:55:49.809Z,990.98
2019-05-17T10:56:52.599Z,991.04
2019-05-17T10:57:54.490Z,991.04
2019-05-17T10:58:55.545Z,991.09
2019-05-17T10:59:53.773Z,991.1
2019-05-17T11:00:54.264Z,991.1
2019-05-17T11:01:53.401Z,991.1
2019-05-17T11:02:53.937Z,991.15
2019-05-17T11:04:02.207Z,991.12
2019-05-17T11:05:00.979Z,991.09
2019-05-17T11:05:59.691Z,991.04
2019-05-17T11:06:59.476Z,991.07
2019-05-17T11:07:59.743Z,991.06
2019-05-17T11:09:01.545Z,991.1
2019-05-17T11:10:00.929Z,991.01
2019-05-17T11:11:01.909Z,991.04
2019-05-17T11:12:02.210Z,991.13
2019-05-17T11:13:00.540Z,991.13
2019-05-17T11:13:59.828Z,991.06
2019-05-17T11:15:10.203Z,991.09
2019-05-17T11:15:11.087Z,991.09
2019-05-17T11:15:11.415Z,991.09
2019-05-17T11:15:59.526Z,991.1
2019-05-17T11:17:04.593Z,991.09
2019-05-17T11:18:06.955Z,991.09
2019-05-17T11:19:08.742Z,991.11
2019-05-17T11:20:10.723Z,991.14
2019-05-17T11:21:08.625Z,991.14
2019-05-17T11:22:11.485Z,991.16
2019-05-17T11:23:09.363Z,991.12
2019-05-17T11:24:11.441Z,991.14
2019-05-17T11:25:12.345Z,991.22
2019-05-17T11:26:13.655Z,991.09
2019-05-17T11:27:11.984Z,991.2
2019-05-17T11:28:11.033Z,991.19
2019-05-17T11:29:11.661Z,991.19
2019-05-17T11:30:10.368Z,991.25
2019-05-17T11:31:09.218Z,991.16
2019-05-17T11:32:10.483Z,991.25
2019-05-17T11:33:11.855Z,991.22
2019-05-17T11:34:08.559Z,991.19
2019-05-17T11:35:06.751Z,991.19
2019-05-17T11:36:05.730Z,991.23
2019-05-17T11:37:05.151Z,991.35
2019-05-17T11:38:06.075Z,991.28
2019-05-17T11:39:04.834Z,991.2
2019-05-17T11:40:08.367Z,991.34
2019-05-17T11:41:20.679Z,991.26
2019-05-17T11:41:21.232Z,991.26
2019-05-17T11:41:21.748Z,991.26
2019-05-17T11:42:07.637Z,991.26
2019-05-17T11:43:09.263Z,991.23
2019-05-17T11:44:39.379Z,991.29
2019-05-17T11:45:34.027Z,991.23
2019-05-17T11:46:36.506Z,991.19
2019-05-17T11:47:35.210Z,991.22
2019-05-17T11:48:32.796Z,991.27
2019-05-17T11:49:34.648Z,991.24
2019-05-17T11:50:48.925Z,991.22
2019-05-17T11:51:38.502Z,991.23
2019-05-17T11:52:41.464Z,991.27
2019-05-17T11:53:40.206Z,991.21
2019-05-17T11:54:38.237Z,991.17
2019-05-17T11:55:36.137Z,991.17
2019-05-17T11:56:34.114Z,991.2
2019-05-17T11:57:36.047Z,991.16
2019-05-17T11:58:33.067Z,991.18